Aviation Digital Data Service (ADDS)

Output produced by METARs form (1826 UTC 16 August 2018)
found at http://www.aviationweather.gov/adds/metars/
 
WSAP 161800Z 14003KT 9999 FEW018 BKN300 29/25 Q1008
TAF WSAP 161700Z 1618/1800 16010KT 9999 FEW015 SCT020 
     TEMPO 1702/1706 3000 TSRA FEW012CB BKN015
       
WSSL 161800Z 12006KT 9999 FEW016 BKN300 28/23 Q1008 RMK 1430Z Q1008
TAF WSSL 161700Z 1618/1800 16010KT 9999 FEW015 SCT020 
     TEMPO 1702/1706 3000 TSRA FEW012CB BKN015
       
WSSS 161800Z 14006KT 9999 FEW018 BKN300 28/24 Q1009 NOSIG
TAF WSSS 161700Z 1618/1800 16010KT 9999 FEW015 SCT020 
     TEMPO 1702/1706 3000 TSRA FEW012CB BKN015